»·PEaware :: N781AG KBLI-KEUG

N781AG :: KBLI-KEUG

FLIGHT INFORMATION

Flight Status: Arrived
Operator: Privately registered:
United States
More flights under this callsign
Pilot: Anonymous 14167 (14167)
Aircraft: SOCATA TBM-900
(TBM9)
More flights by this aircraft type
Origin: KBLI Bellingham Intl
United States
Destination: KEUG Mahlon Sweet
United States
More flights between these airports :: More routes between these airports
Route: KIENO5 CVV EUG
File this flight plan on PilotEdge
Remarks:
Altitude:
(Current/Filed)
26,000ft
Speed:
(Current/Filed)
250kts
Departed: 11-Nov-18 05:17 PM
Arrived: 11-Nov-18 06:23 PM
Distance/Time
Traveled:
282nm/1:06
Distance/Time
To Go:
Arrived

Flight Plot

Page will automatically refresh every two minutes.

Flight plan parsing failed; only flown route is shown


Map Options




Map Legend


Flown Route
Filed Route
Departure Airport
Arrival Airport
Navaid (VOR, NDB)
Fix

Horizontal Profiles

Position Reports

Time Latitude Longitude Heading Altitude Ground
Speed
11-Nov-18 16:55 48.791292 -122.534783 89 172ft 0kts
11-Nov-18 16:56 48.791292 -122.534783 89 172ft 0kts
11-Nov-18 16:57 48.791292 -122.534783 89 172ft 0kts
11-Nov-18 16:58 48.791292 -122.534783 89 172ft 0kts
11-Nov-18 16:59 48.791292 -122.534783 89 172ft 0kts
11-Nov-18 17:00 48.791292 -122.534783 89 172ft 0kts
11-Nov-18 17:01 48.791292 -122.534783 89 172ft 0kts
11-Nov-18 17:02 48.791292 -122.534783 89 172ft 0kts
11-Nov-18 17:03 48.791292 -122.534783 89 172ft 0kts
11-Nov-18 17:04 48.791292 -122.534783 89 172ft 0kts
11-Nov-18 17:05 48.791292 -122.534783 89 172ft 0kts
11-Nov-18 17:06 48.791292 -122.534783 89 172ft 0kts
11-Nov-18 17:07 48.791292 -122.534783 89 172ft 0kts
11-Nov-18 17:08 48.791292 -122.534783 89 172ft 0kts
11-Nov-18 17:09 48.791292 -122.534783 89 172ft 0kts
11-Nov-18 17:10 48.791292 -122.534783 89 172ft 0kts
11-Nov-18 17:11 48.791292 -122.534783 89 172ft 0kts
11-Nov-18 17:12 48.791292 -122.534783 89 172ft 0kts
11-Nov-18 17:13 48.791292 -122.534783 89 172ft 0kts
11-Nov-18 17:14 48.791292 -122.534783 89 172ft 0kts
11-Nov-18 17:15 48.791330 -122.535482 241 172ft 4kts
11-Nov-18 17:16 48.788719 -122.535838 178 172ft 12kts
11-Nov-18 17:17 48.785124 -122.535766 174 172ft 13kts
11-Nov-18 17:18 48.783627 -122.536220 267 172ft 0kts
11-Nov-18 17:19 48.783730 -122.537502 337 172ft 10kts
11-Nov-18 17:20 48.796493 -122.537265 4 590ft 111kts
11-Nov-18 17:21 48.824083 -122.550301 257 2307ft 143kts
11-Nov-18 17:22 48.792101 -122.577960 187 4230ft 150kts
11-Nov-18 17:23 48.753234 -122.574823 170 6248ft 137kts
11-Nov-18 17:24 48.718665 -122.567485 169 8215ft 114kts
11-Nov-18 17:25 48.672590 -122.558084 172 8301ft 212kts
11-Nov-18 17:26 48.609260 -122.565834 196 8276ft 246kts
11-Nov-18 17:27 48.544478 -122.594771 195 8502ft 243kts
11-Nov-18 17:28 48.479320 -122.623112 195 8511ft 244kts
11-Nov-18 17:29 48.419266 -122.649166 195 9942ft 201kts
11-Nov-18 17:30 48.368469 -122.671119 195 12007ft 194kts
11-Nov-18 17:31 48.316093 -122.693692 195 14356ft 202kts
11-Nov-18 17:32 48.261183 -122.717319 195 16360ft 213kts
11-Nov-18 17:33 48.201645 -122.729964 183 18132ft 224kts
11-Nov-18 17:34 48.161690 -122.735203 184 19162ft 230kts
11-Nov-18 17:35 48.097744 -122.743512 184 20611ft 239kts
11-Nov-18 17:36 48.032260 -122.751992 184 21888ft 246kts
11-Nov-18 17:37 47.963142 -122.760919 185 23056ft 254kts
11-Nov-18 17:38 47.892889 -122.769972 185 24081ft 260kts
11-Nov-18 17:39 47.823080 -122.778944 185 24914ft 266kts
11-Nov-18 17:40 47.751773 -122.788083 186 25660ft 270kts
11-Nov-18 17:41 47.689112 -122.796091 186 26240ft 274kts
11-Nov-18 17:42 47.611243 -122.806035 186 26461ft 294kts
11-Nov-18 17:43 47.526694 -122.816781 186 26472ft 329kts
11-Nov-18 17:44 47.431063 -122.828878 185 26459ft 356kts
11-Nov-18 17:45 47.331767 -122.841403 185 26453ft 361kts
11-Nov-18 17:46 47.233074 -122.853809 185 26439ft 362kts
11-Nov-18 17:47 47.133239 -122.866310 185 26431ft 362kts
11-Nov-18 17:48 47.032924 -122.878823 185 26431ft 363kts
11-Nov-18 17:49 46.932928 -122.891257 185 26433ft 362kts
11-Nov-18 17:50 46.838541 -122.902941 185 26420ft 361kts
11-Nov-18 17:51 46.739188 -122.915195 185 26422ft 360kts
11-Nov-18 17:52 46.639834 -122.927407 185 26423ft 359kts
11-Nov-18 17:53 46.540182 -122.939610 185 26425ft 360kts
11-Nov-18 17:54 46.440696 -122.951748 185 26426ft 360kts
11-Nov-18 17:55 46.340981 -122.963867 185 26419ft 360kts
11-Nov-18 17:56 46.241302 -122.975939 185 26404ft 361kts
11-Nov-18 17:57 46.142195 -122.987901 185 26402ft 360kts
11-Nov-18 17:58 46.042840 -122.999844 185 26403ft 360kts
11-Nov-18 17:59 45.943894 -123.011704 185 26404ft 360kts
11-Nov-18 18:00 45.846118 -123.023375 185 26394ft 359kts
11-Nov-18 18:01 45.747258 -123.035137 185 26395ft 358kts
11-Nov-18 18:02 45.648070 -123.046897 185 26185ft 364kts
11-Nov-18 18:03 45.546029 -123.058948 185 24607ft 373kts
11-Nov-18 18:04 45.443446 -123.071023 184 22808ft 368kts
11-Nov-18 18:05 45.342841 -123.082819 184 20927ft 361kts
11-Nov-18 18:06 45.244321 -123.094334 184 19038ft 346kts
11-Nov-18 18:07 45.150702 -123.105234 184 17189ft 332kts
11-Nov-18 18:08 45.061259 -123.115603 184 15783ft 321kts
11-Nov-18 18:09 44.973447 -123.125760 184 14406ft 315kts
11-Nov-18 18:10 44.891096 -123.135275 184 13056ft 302kts
11-Nov-18 18:11 44.811616 -123.144414 184 11707ft 297kts
11-Nov-18 18:12 44.730212 -123.153750 184 10311ft 294kts
11-Nov-18 18:13 44.649936 -123.162946 184 8995ft 279kts
11-Nov-18 18:14 44.589801 -123.169816 184 8980ft 249kts
11-Nov-18 18:15 44.510590 -123.178816 184 8683ft 251kts
11-Nov-18 18:16 44.452193 -123.185447 184 7700ft 254kts
11-Nov-18 18:17 44.383079 -123.199964 203 6485ft 247kts
11-Nov-18 18:18 44.315603 -123.243034 204 5053ft 219kts
11-Nov-18 18:19 44.261149 -123.269466 188 3816ft 191kts
11-Nov-18 18:20 44.219566 -123.274850 181 2775ft 174kts
11-Nov-18 18:21 44.167584 -123.263232 169 2332ft 155kts
11-Nov-18 18:22 44.132454 -123.256027 180 2223ft 127kts
11-Nov-18 18:23 44.102479 -123.256390 179 2147ft 92kts
11-Nov-18 18:24 44.085100 -123.235032 91 1615ft 96kts
11-Nov-18 18:25 44.106303 -123.218861 2 634ft 102kts
11-Nov-18 18:26 44.120917 -123.217813 89 377ft 6kts
11-Nov-18 18:27 44.120951 -123.216369 88 377ft 12kts
11-Nov-18 18:28 44.120886 -123.212659 341 377ft 0kts
11-Nov-18 18:29 44.120886 -123.212659 341 377ft 0kts
11-Nov-18 18:30 44.120886 -123.212659 341 377ft 0kts
11-Nov-18 18:31 44.120886 -123.212659 341 377ft 0kts
11-Nov-18 18:32 44.120886 -123.212659 341 377ft 0kts
11-Nov-18 18:33 44.120886 -123.212659 341 377ft 0kts
11-Nov-18 18:34 44.120886 -123.212659 341 377ft 0kts
11-Nov-18 18:35 44.120886 -123.212659 341 377ft 0kts
11-Nov-18 18:36 44.120886 -123.212659 341 377ft 0kts
11-Nov-18 18:37 44.120886 -123.212659 341 377ft 0kts

Navigation Log

Ident Type
Flight plan parsing failed, navigation log unavailable